Time;durP1;ratioP1;P1;durP2;ratioP2;P2;SDS_P1;SDS_P2;PMS_P1;PMS_P2;Temp;Humidity;BMP_temperature;BMP_pressure;BME280_temperature;BME280_humidity;BME280_pressure;Samples;Min_cycle;Max_cycle;Signal;HPM_P1;HPM_P2
2023/05/05 00:00:28;;;;;;;8.20;6.97;;;21.10;98.70;;;;;;5041998;28;20234;-32
2023/05/05 00:02:55;;;;;;;7.25;5.88;;;21.10;98.80;;;;;;5036271;28;20232;-33
2023/05/05 00:05:25;;;;;;;6.68;6.13;;;21.00;98.80;;;;;;5038207;28;20212;-33
2023/05/05 00:07:53;;;;;;;7.15;6.43;;;21.00;98.80;;;;;;5046030;28;20832;-33
2023/05/05 00:10:25;;;;;;;6.28;5.68;;;20.90;98.70;;;;;;5045265;28;20311;-33
2023/05/05 00:12:52;;;;;;;6.90;6.20;;;20.90;98.80;;;;;;5041041;28;20204;-33
2023/05/05 00:15:22;;;;;;;7.13;6.47;;;20.90;98.80;;;;;;5036865;28;20565;-33
2023/05/05 00:17:51;;;;;;;6.00;5.40;;;20.80;98.90;;;;;;5034581;28;20259;-33
2023/05/05 00:20:18;;;;;;;6.85;5.32;;;20.80;98.80;;;;;;5044838;28;20265;-33
2023/05/05 00:22:51;;;;;;;5.10;4.70;;;20.70;98.80;;;;;;5042832;28;20200;-33
2023/05/05 00:25:18;;;;;;;6.07;4.15;;;20.70;98.80;;;;;;5034805;28;20531;-34
2023/05/05 00:27:47;;;;;;;4.22;3.83;;;20.70;98.70;;;;;;5041416;28;20316;-33
2023/05/05 00:30:19;;;;;;;4.32;3.80;;;20.60;98.50;;;;;;5042433;28;20204;-33
2023/05/05 00:32:52;;;;;;;3.85;3.40;;;20.60;98.60;;;;;;5027720;28;20215;-33
2023/05/05 00:35:22;;;;;;;4.00;3.67;;;20.50;98.50;;;;;;5024569;28;20231;-33
2023/05/05 00:37:49;;;;;;;3.67;3.30;;;20.50;98.40;;;;;;5042641;28;20324;-33
2023/05/05 00:40:19;;;;;;;4.07;3.25;;;20.50;98.30;;;;;;5044173;28;20208;-33
2023/05/05 00:42:49;;;;;;;4.30;3.45;;;20.30;98.20;;;;;;5034186;28;20200;-33
2023/05/05 00:45:18;;;;;;;4.55;3.45;;;20.30;98.20;;;;;;5041279;28;20683;-33
2023/05/05 00:47:54;;;;;;;3.90;3.30;;;20.20;98.20;;;;;;5033621;28;20274;-33
2023/05/05 00:50:23;;;;;;;3.35;3.05;;;20.10;98.20;;;;;;5023756;28;20523;-33
2023/05/05 00:52:55;;;;;;;3.70;3.35;;;20.00;98.10;;;;;;5024316;28;20235;-33
2023/05/05 00:55:22;;;;;;;3.50;3.20;;;19.90;98.00;;;;;;5028618;28;20302;-33
2023/05/05 00:57:49;;;;;;;5.05;3.42;;;19.90;98.00;;;;;;5037350;28;20231;-32
2023/05/05 01:00:18;;;;;;;3.70;3.40;;;19.70;97.90;;;;;;5039403;28;20209;-32
2023/05/05 01:02:45;;;;;;;4.10;3.35;;;19.70;97.90;;;;;;5028036;28;20686;-32
2023/05/05 01:05:16;;;;;;;4.35;3.28;;;19.60;97.90;;;;;;5033443;28;20682;-32
2023/05/05 01:07:43;;;;;;;3.63;3.00;;;19.50;97.90;;;;;;5034793;28;20207;-32
2023/05/05 01:10:31;;;;;;;3.50;3.20;;;19.40;97.90;;;;;;5025755;28;20299;-33
2023/05/05 01:13:17;;;;;;;4.78;3.05;;;19.40;98.00;;;;;;5027675;28;20221;-32
2023/05/05 01:16:06;;;;;;;3.47;2.95;;;19.30;97.90;;;;;;5029793;28;20444;-33
2023/05/05 01:19:01;;;;;;;3.78;3.33;;;19.20;98.20;;;;;;5033999;28;20228;-33
2023/05/05 01:21:34;;;;;;;3.50;3.20;;;19.10;98.00;;;;;;5035482;28;20222;-32
2023/05/05 01:24:20;;;;;;;4.38;3.67;;;19.00;97.90;;;;;;5044673;28;20196;-32
2023/05/05 01:27:09;;;;;;;4.22;3.83;;;19.00;98.20;;;;;;5034027;28;20205;-32
2023/05/05 01:30:09;;;;;;;3.80;3.50;;;18.90;98.20;;;;;;5024215;28;20201;-33
2023/05/05 01:32:42;;;;;;;6.55;5.18;;;18.90;98.30;;;;;;5028911;28;20700;-32
2023/05/05 01:35:18;;;;;;;5.50;4.90;;;18.80;98.10;;;;;;5025088;28;20215;-33
2023/05/05 01:37:50;;;;;;;6.28;5.68;;;18.80;98.30;;;;;;5041601;28;20222;-32
2023/05/05 01:40:26;;;;;;;7.43;5.82;;;18.70;98.10;;;;;;5039786;28;20307;-32
2023/05/05 01:42:58;;;;;;;6.78;6.13;;;18.60;98.30;;;;;;5041186;28;20670;-32
2023/05/05 01:45:39;;;;;;;7.25;6.00;;;18.60;98.10;;;;;;5043832;28;20200;-32
2023/05/05 01:48:08;;;;;;;7.70;6.78;;;18.60;98.40;;;;;;5041884;28;20637;-33
2023/05/05 01:50:36;;;;;;;7.10;6.40;;;18.50;98.20;;;;;;5029380;28;20223;-32
2023/05/05 01:53:05;;;;;;;7.28;6.47;;;18.50;98.20;;;;;;5030840;28;20274;-32
2023/05/05 01:55:34;;;;;;;7.65;6.95;;;18.40;98.20;;;;;;5040115;28;20619;-33
2023/05/05 01:58:08;;;;;;;8.30;7.30;;;18.40;98.30;;;;;;5042041;28;20238;-32
2023/05/05 02:00:36;;;;;;;8.90;8.10;;;18.40;98.30;;;;;;5027382;28;20225;-33
2023/05/05 02:03:07;;;;;;;9.02;8.13;;;18.40;98.40;;;;;;5039636;28;20207;-32
2023/05/05 02:05:39;;;;;;;9.13;8.23;;;18.40;98.60;;;;;;5041253;28;20240;-32
2023/05/05 02:08:10;;;;;;;9.25;7.88;;;18.30;98.50;;;;;;5042265;28;20859;-32
2023/05/05 02:10:42;;;;;;;10.38;9.32;;;18.30;98.60;;;;;;5042179;28;20210;-32
2023/05/05 02:13:14;;;;;;;10.15;9.02;;;18.30;98.60;;;;;;5040649;28;20216;-32
2023/05/05 02:15:45;;;;;;;10.02;8.80;;;18.30;98.60;;;;;;5043281;28;20204;-33
2023/05/05 02:18:13;;;;;;;10.45;9.35;;;18.30;98.70;;;;;;5026588;28;20298;-32
2023/05/05 02:20:45;;;;;;;12.90;9.65;;;18.20;98.60;;;;;;5037481;28;20211;-32
2023/05/05 02:23:18;;;;;;;11.23;10.13;;;18.20;98.70;;;;;;5028021;28;20224;-33
2023/05/05 02:25:52;;;;;;;11.65;10.55;;;18.20;98.80;;;;;;5023879;28;20197;-33
2023/05/05 02:28:38;;;;;;;13.93;11.05;;;18.20;98.90;;;;;;5021978;28;20679;-33
2023/05/05 02:31:13;;;;;;;12.23;11.02;;;18.10;98.90;;;;;;5023566;28;20240;-33
2023/05/05 02:33:42;;;;;;;14.70;12.55;;;18.10;99.00;;;;;;5027848;28;20295;-33
2023/05/05 02:36:20;;;;;;;12.27;11.02;;;18.10;99.00;;;;;;5041954;28;20227;-33
2023/05/05 02:38:59;;;;;;;13.40;12.00;;;18.10;99.20;;;;;;5041998;28;20316;-33
2023/05/05 02:41:30;;;;;;;13.90;12.52;;;18.10;99.10;;;;;;5043126;28;20224;-33
2023/05/05 02:44:02;;;;;;;12.80;11.50;;;18.10;99.20;;;;;;5039436;28;20200;-33
2023/05/05 02:46:30;;;;;;;14.75;11.68;;;18.10;99.30;;;;;;5023073;28;20228;-33
2023/05/05 02:48:58;;;;;;;13.43;12.02;;;18.00;99.10;;;;;;5041369;28;20595;-33
2023/05/05 02:51:28;;;;;;;17.65;12.95;;;18.00;99.10;;;;;;5032456;28;20221;-33
2023/05/05 02:53:55;;;;;;;15.18;12.48;;;18.00;99.20;;;;;;5037882;28;20200;-33
2023/05/05 02:56:46;;;;;;;15.40;12.73;;;18.00;99.30;;;;;;5023387;28;20729;-33
2023/05/05 02:59:29;;;;;;;14.02;12.52;;;18.00;99.50;;;;;;5040666;28;20235;-33
2023/05/05 03:02:16;;;;;;;13.43;12.02;;;17.90;99.40;;;;;;5040326;28;20260;-32
2023/05/05 03:04:49;;;;;;;12.85;11.55;;;17.90;99.50;;;;;;5041871;28;20250;-33
2023/05/05 03:07:24;;;;;;;13.23;11.93;;;17.90;99.80;;;;;;5041027;28;20219;-33
2023/05/05 03:10:08;;;;;;;12.13;10.88;;;17.80;99.50;;;;;;5038417;28;20296;-33
2023/05/05 03:12:58;;;;;;;13.32;12.02;;;17.80;99.40;;;;;;5023921;28;20751;-33
2023/05/05 03:15:56;;;;;;;12.75;11.25;;;17.80;99.60;;;;;;5025761;28;20840;-33
2023/05/05 03:18:31;;;;;;;13.85;12.38;;;17.80;99.50;;;;;;5032010;28;20246;-33
2023/05/05 03:21:06;;;;;;;12.77;11.48;;;17.80;99.50;;;;;;5043276;28;20784;-33
2023/05/05 03:23:35;;;;;;;12.88;11.57;;;17.80;99.40;;;;;;5042520;28;20294;-33
2023/05/05 03:26:04;;;;;;;12.07;10.80;;;17.70;99.50;;;;;;5027693;28;20274;-33
2023/05/05 03:28:33;;;;;;;12.32;11.13;;;17.70;99.60;;;;;;5030410;28;20295;-33
2023/05/05 03:31:02;;;;;;;12.80;11.48;;;17.70;99.60;;;;;;5040474;28;20240;-33
2023/05/05 03:33:29;;;;;;;11.82;10.63;;;17.70;99.60;;;;;;5043595;28;20262;-33
2023/05/05 03:35:59;;;;;;;11.20;10.07;;;17.70;99.50;;;;;;5047051;28;20597;-33
2023/05/05 03:38:28;;;;;;;12.07;10.80;;;17.70;99.50;;;;;;5043800;28;20292;-33
2023/05/05 03:40:55;;;;;;;11.85;10.65;;;17.70;99.60;;;;;;5046416;28;20605;-33
2023/05/05 03:43:25;;;;;;;12.15;10.95;;;17.60;99.60;;;;;;5026090;28;20289;-33
2023/05/05 03:45:55;;;;;;;11.32;10.05;;;17.60;99.60;;;;;;5041817;28;20292;-33
2023/05/05 03:48:24;;;;;;;11.70;10.60;;;17.60;99.60;;;;;;5032398;28;20551;-33
2023/05/05 03:50:56;;;;;;;12.40;10.50;;;17.50;99.60;;;;;;5044915;28;20273;-33
2023/05/05 03:53:24;;;;;;;11.48;10.38;;;17.50;99.70;;;;;;5043651;28;20583;-33
2023/05/05 03:55:55;;;;;;;11.65;10.27;;;17.50;99.60;;;;;;5045146;28;20342;-33
2023/05/05 03:58:25;;;;;;;11.93;10.82;;;17.40;99.60;;;;;;5040509;28;20223;-33
2023/05/05 04:00:54;;;;;;;12.05;10.30;;;17.40;99.70;;;;;;5026201;28;20216;-33
2023/05/05 04:03:24;;;;;;;12.52;10.52;;;17.30;99.60;;;;;;5040737;28;20211;-33
2023/05/05 04:05:52;;;;;;;11.27;10.18;;;17.30;99.60;;;;;;5025077;28;20288;-33
2023/05/05 04:08:19;;;;;;;11.18;10.15;;;17.20;99.60;;;;;;5025941;28;20262;-33
2023/05/05 04:10:48;;;;;;;10.15;9.00;;;17.20;99.60;;;;;;5035882;28;20220;-33
2023/05/05 04:13:18;;;;;;;10.65;9.65;;;17.20;99.60;;;;;;5043670;28;20299;-33
2023/05/05 04:15:49;;;;;;;11.43;10.18;;;17.10;99.60;;;;;;5038976;28;20205;-33
2023/05/05 04:18:22;;;;;;;10.75;9.70;;;17.10;99.70;;;;;;5025553;28;20317;-33
2023/05/05 04:20:49;;;;;;;10.60;9.18;;;17.00;99.60;;;;;;5026019;28;20209;-33
2023/05/05 04:23:16;;;;;;;10.52;9.35;;;17.00;99.60;;;;;;5024565;28;20675;-33
2023/05/05 04:25:43;;;;;;;10.48;8.82;;;17.00;99.70;;;;;;5024603;28;20744;-33
2023/05/05 04:28:15;;;;;;;12.68;9.93;;;16.90;99.60;;;;;;5043535;28;20211;-33
2023/05/05 04:30:43;;;;;;;10.35;9.32;;;16.90;99.70;;;;;;5043535;28;20266;-33
2023/05/05 04:33:13;;;;;;;9.60;8.60;;;16.90;99.70;;;;;;5037000;28;20307;-33
2023/05/05 04:35:40;;;;;;;14.30;9.50;;;16.90;99.70;;;;;;5024041;28;20316;-33
2023/05/05 04:38:14;;;;;;;12.05;9.13;;;16.80;99.70;;;;;;5024122;28;20739;-33
2023/05/05 04:40:43;;;;;;;10.63;9.45;;;16.80;99.80;;;;;;5039963;28;20204;-33
2023/05/05 04:43:12;;;;;;;10.85;9.25;;;16.80;99.80;;;;;;5044993;28;20274;-33
2023/05/05 04:45:42;;;;;;;10.63;9.50;;;16.80;99.80;;;;;;5042877;28;20223;-33
2023/05/05 04:48:11;;;;;;;10.15;9.05;;;16.80;99.80;;;;;;5045744;28;20204;-33
2023/05/05 04:50:40;;;;;;;9.93;8.93;;;16.80;99.70;;;;;;5026543;28;20213;-33
2023/05/05 04:53:10;;;;;;;8.95;8.00;;;16.80;99.80;;;;;;5037997;28;20313;-33
2023/05/05 04:55:40;;;;;;;9.68;8.60;;;16.80;99.80;;;;;;5042220;28;20539;-33
2023/05/05 04:58:10;;;;;;;9.45;7.60;;;16.80;99.80;;;;;;5043778;28;20225;-33
2023/05/05 05:00:39;;;;;;;9.48;7.03;;;16.80;99.90;;;;;;5038725;28;20207;-33
2023/05/05 05:03:09;;;;;;;8.57;7.47;;;16.80;99.90;;;;;;5031386;28;20326;-33
2023/05/05 05:05:36;;;;;;;7.85;7.05;;;16.80;99.80;;;;;;5044401;28;20193;-33
2023/05/05 05:08:04;;;;;;;9.02;7.88;;;16.90;99.80;;;;;;5045525;28;20319;-33
2023/05/05 05:10:31;;;;;;;8.50;7.55;;;16.90;99.90;;;;;;5041587;28;20238;-33
2023/05/05 05:13:01;;;;;;;8.90;7.22;;;16.90;99.90;;;;;;5039046;28;20216;-33
2023/05/05 05:15:31;;;;;;;9.50;8.02;;;16.90;99.90;;;;;;5043378;28;20287;-33
2023/05/05 05:18:00;;;;;;;10.77;8.10;;;16.90;99.90;;;;;;5037211;28;20227;-33
2023/05/05 05:20:29;;;;;;;8.15;7.35;;;16.90;99.90;;;;;;5013335;28;20200;-33
2023/05/05 05:23:03;;;;;;;9.27;8.32;;;16.90;99.90;;;;;;5040336;28;20216;-33
2023/05/05 05:25:32;;;;;;;8.65;7.85;;;16.90;99.90;;;;;;5037301;28;20212;-33
2023/05/05 05:28:02;;;;;;;9.52;8.52;;;16.90;99.90;;;;;;5044601;28;20277;-33
2023/05/05 05:30:36;;;;;;;8.82;7.93;;;16.90;99.90;;;;;;5043672;28;20223;-33
2023/05/05 05:33:04;;;;;;;9.25;8.30;;;16.90;99.90;;;;;;5042087;28;20204;-33
2023/05/05 05:35:33;;;;;;;8.88;8.00;;;17.00;99.90;;;;;;5026798;28;20274;-33
2023/05/05 05:38:07;;;;;;;8.85;7.95;;;16.90;99.90;;;;;;5043080;28;20238;-33
2023/05/05 05:40:37;;;;;;;8.80;7.78;;;17.00;99.90;;;;;;5039201;28;20207;-33
2023/05/05 05:43:04;;;;;;;11.30;7.75;;;17.00;99.90;;;;;;5041791;28;20743;-33
2023/05/05 05:45:33;;;;;;;10.10;8.32;;;17.10;99.90;;;;;;5042176;28;20301;-33
2023/05/05 05:48:01;;;;;;;10.35;8.63;;;17.10;99.90;;;;;;5041583;28;20699;-33
2023/05/05 05:50:34;;;;;;;10.55;7.55;;;17.10;99.90;;;;;;5022965;28;20197;-33
2023/05/05 05:53:04;;;;;;;9.82;7.65;;;17.20;99.90;;;;;;5026719;28;20413;-33
2023/05/05 05:55:33;;;;;;;9.25;7.68;;;17.20;99.90;;;;;;5041135;28;20539;-33
2023/05/05 05:58:03;;;;;;;12.00;7.68;;;17.30;99.90;;;;;;5037076;28;20216;-33
2023/05/05 06:00:32;;;;;;;9.38;7.50;;;17.30;99.90;;;;;;5032976;28;20568;-33
2023/05/05 06:03:02;;;;;;;9.65;7.20;;;17.40;99.90;;;;;;5024059;28;20265;-33
2023/05/05 06:05:30;;;;;;;8.80;7.90;;;17.50;99.90;;;;;;5023395;28;20221;-33
2023/05/05 06:07:59;;;;;;;11.15;8.02;;;17.60;99.90;;;;;;5043121;28;20223;-33
2023/05/05 06:10:29;;;;;;;7.07;6.22;;;17.70;99.90;;;;;;5039001;28;20696;-32
2023/05/05 06:12:56;;;;;;;9.27;7.03;;;17.80;99.90;;;;;;5026115;28;20208;-33
2023/05/05 06:15:24;;;;;;;8.77;6.70;;;17.90;99.90;;;;;;5024267;28;20200;-33
2023/05/05 06:17:52;;;;;;;10.30;6.85;;;18.00;99.90;;;;;;5032322;28;20227;-32
2023/05/05 06:20:22;;;;;;;10.10;6.60;;;18.00;99.90;;;;;;5040297;28;20594;-33
2023/05/05 06:22:51;;;;;;;11.93;7.30;;;18.10;99.90;;;;;;5041142;28;20300;-33
2023/05/05 06:25:23;;;;;;;8.68;6.68;;;18.10;99.90;;;;;;5036440;28;20293;-33
2023/05/05 06:27:50;;;;;;;8.38;6.95;;;18.20;99.90;;;;;;5028648;28;20220;-33
2023/05/05 06:30:17;;;;;;;8.15;6.60;;;18.20;99.90;;;;;;5041386;28;20382;-33
2023/05/05 06:32:47;;;;;;;8.10;6.15;;;18.30;99.90;;;;;;5040305;28;20707;-32
2023/05/05 06:35:14;;;;;;;7.70;6.63;;;18.40;99.90;;;;;;5052664;28;20930;-32
2023/05/05 06:37:42;;;;;;;7.47;6.70;;;18.40;99.90;;;;;;5040716;28;20347;-33
2023/05/05 06:40:10;;;;;;;7.70;6.75;;;18.50;99.90;;;;;;5031650;28;20633;-32
2023/05/05 06:42:40;;;;;;;7.95;6.93;;;18.50;99.90;;;;;;5029607;28;20600;-33
2023/05/05 06:45:10;;;;;;;8.65;6.10;;;18.60;99.90;;;;;;5040280;28;20287;-33
2023/05/05 06:47:41;;;;;;;8.18;5.80;;;18.70;99.90;;;;;;5051797;28;20196;-33
2023/05/05 06:50:10;;;;;;;11.88;6.55;;;18.80;99.90;;;;;;5038661;28;20242;-32
2023/05/05 06:52:40;;;;;;;7.53;5.78;;;18.90;99.90;;;;;;5028913;28;20299;-33
2023/05/05 06:55:10;;;;;;;20.73;8.88;;;18.90;99.90;;;;;;5028086;28;20372;-33
2023/05/05 06:57:38;;;;;;;9.43;6.47;;;19.00;99.90;;;;;;5025397;28;20538;-33
2023/05/05 07:00:08;;;;;;;7.68;5.93;;;19.10;99.90;;;;;;5028555;28;20598;-33
2023/05/05 07:02:36;;;;;;;19.50;7.43;;;19.10;99.90;;;;;;5038094;28;20577;-32
2023/05/05 07:05:04;;;;;;;11.40;6.55;;;19.20;99.90;;;;;;5026418;28;20204;-33
2023/05/05 07:07:37;;;;;;;8.25;5.57;;;19.30;99.90;;;;;;5022633;28;20505;-33
2023/05/05 07:10:09;;;;;;;9.30;6.10;;;19.40;99.90;;;;;;5049101;28;20207;-33
2023/05/05 07:12:36;;;;;;;6.95;5.53;;;19.50;99.90;;;;;;5045896;28;20208;-33
2023/05/05 07:15:07;;;;;;;9.75;5.53;;;19.50;99.90;;;;;;5053667;28;20203;-33
2023/05/05 07:17:55;;;;;;;9.35;5.63;;;19.60;99.90;;;;;;5034964;28;20212;-33
2023/05/05 07:20:23;;;;;;;7.88;5.38;;;19.60;99.90;;;;;;5031584;28;20200;-33
2023/05/05 07:22:50;;;;;;;9.50;5.80;;;19.70;99.90;;;;;;5025995;28;20292;-33
2023/05/05 07:25:20;;;;;;;6.72;5.22;;;19.80;99.90;;;;;;5031661;28;20231;-33
2023/05/05 07:27:50;;;;;;;8.40;5.30;;;19.80;99.90;;;;;;5030386;28;20656;-32
2023/05/05 07:30:23;;;;;;;7.07;4.68;;;19.90;99.90;;;;;;5042402;28;20339;-33
2023/05/05 07:32:53;;;;;;;8.63;5.45;;;20.00;99.90;;;;;;5031681;28;20208;-33
2023/05/05 07:35:26;;;;;;;7.35;5.07;;;20.10;99.90;;;;;;5022889;28;20255;-33
2023/05/05 07:37:55;;;;;;;5.57;4.80;;;20.10;99.90;;;;;;5022491;28;20688;-33
2023/05/05 07:40:25;;;;;;;5.10;4.25;;;20.20;99.90;;;;;;5030711;28;20329;-33
2023/05/05 07:42:52;;;;;;;7.70;4.95;;;20.30;99.90;;;;;;5040799;28;20200;-33
2023/05/05 07:45:20;;;;;;;9.18;5.05;;;20.40;99.90;;;;;;5039451;28;20231;-32
2023/05/05 07:47:47;;;;;;;8.88;5.07;;;20.40;99.90;;;;;;5023313;28;20702;-32
2023/05/05 07:50:15;;;;;;;7.60;4.80;;;20.40;99.90;;;;;;5021032;28;20201;-33
2023/05/05 07:52:44;;;;;;;6.30;4.82;;;20.50;99.90;;;;;;5035568;28;20204;-33
2023/05/05 07:55:24;;;;;;;7.25;5.00;;;20.50;99.90;;;;;;5041881;28;20204;-32
2023/05/05 07:57:54;;;;;;;9.52;5.30;;;20.50;99.90;;;;;;5028155;28;20245;-33
2023/05/05 08:00:21;;;;;;;5.28;4.47;;;20.60;99.90;;;;;;5044558;28;20231;-33
2023/05/05 08:02:52;;;;;;;7.30;4.32;;;20.60;99.90;;;;;;5039505;28;20286;-33
2023/05/05 08:05:20;;;;;;;6.43;4.32;;;20.60;99.90;;;;;;5042220;28;20741;-33
2023/05/05 08:07:47;;;;;;;7.28;5.78;;;20.70;99.90;;;;;;5029273;28;20212;-33
2023/05/05 08:10:14;;;;;;;7.40;4.90;;;20.70;99.90;;;;;;5021141;28;20474;-33
2023/05/05 08:12:46;;;;;;;6.47;4.38;;;20.70;99.90;;;;;;5022343;28;20207;-33
2023/05/05 08:15:15;;;;;;;5.88;4.50;;;20.80;99.90;;;;;;5054246;28;20277;-33
2023/05/05 08:17:44;;;;;;;6.18;4.30;;;20.80;99.90;;;;;;5044908;28;20209;-33
2023/05/05 08:20:17;;;;;;;7.90;4.35;;;20.80;99.90;;;;;;5053307;28;20215;-33
2023/05/05 08:22:45;;;;;;;6.25;4.10;;;20.90;99.90;;;;;;5053134;28;20208;-33
2023/05/05 08:25:17;;;;;;;8.18;4.05;;;20.90;99.90;;;;;;5045824;28;20200;-33
2023/05/05 08:27:44;;;;;;;10.48;4.45;;;21.00;99.90;;;;;;5044210;28;20210;-33
2023/05/05 08:30:12;;;;;;;8.20;4.50;;;21.00;99.90;;;;;;5052471;28;20576;-33
2023/05/05 08:32:44;;;;;;;9.00;4.20;;;21.00;99.90;;;;;;5024065;28;20244;-33
2023/05/05 08:35:13;;;;;;;10.45;3.80;;;21.10;99.90;;;;;;5034843;28;20214;-33
2023/05/05 08:37:41;;;;;;;16.35;4.50;;;21.10;99.90;;;;;;5037608;28;20212;-33
2023/05/05 08:40:12;;;;;;;8.18;4.05;;;21.20;99.90;;;;;;5024261;28;20260;-33
2023/05/05 08:42:45;;;;;;;7.90;3.75;;;21.20;99.90;;;;;;5025380;28;20193;-32
2023/05/05 08:45:18;;;;;;;5.53;3.03;;;21.30;99.90;;;;;;5031284;28;20571;-33
2023/05/05 08:47:47;;;;;;;5.82;2.90;;;21.30;99.90;;;;;;5028863;28;20196;-32
2023/05/05 08:50:17;;;;;;;5.40;2.90;;;21.30;99.90;;;;;;5045647;28;20621;-33
2023/05/05 08:52:52;;;;;;;8.60;3.80;;;21.30;99.90;;;;;;5043460;28;20231;-33
2023/05/05 08:55:23;;;;;;;13.50;3.95;;;21.30;99.90;;;;;;5045172;28;20204;-33
2023/05/05 08:57:56;;;;;;;7.93;3.22;;;21.30;99.90;;;;;;5038499;28;20798;-33
2023/05/05 09:00:25;;;;;;;10.57;4.45;;;21.30;99.90;;;;;;5033117;28;20857;-33
2023/05/05 09:03:02;;;;;;;10.80;4.63;;;21.30;99.90;;;;;;5044546;28;20212;-33
2023/05/05 09:05:31;;;;;;;10.23;4.75;;;21.30;99.90;;;;;;5042474;28;20204;-33
2023/05/05 09:08:00;;;;;;;8.32;4.32;;;21.20;99.90;;;;;;5024719;28;20231;-33
2023/05/05 09:10:28;;;;;;;5.93;3.35;;;21.10;99.90;;;;;;5036038;28;20211;-33
2023/05/05 09:13:01;;;;;;;8.93;4.55;;;21.10;99.90;;;;;;5053663;28;20204;-33
2023/05/05 09:15:33;;;;;;;12.93;4.63;;;21.00;99.90;;;;;;5042095;28;20274;-33
2023/05/05 09:18:11;;;;;;;11.73;4.55;;;21.00;99.90;;;;;;5040675;28;20224;-33
2023/05/05 09:20:41;;;;;;;12.68;4.20;;;21.00;99.90;;;;;;5042258;28;20859;-33
2023/05/05 09:23:11;;;;;;;8.40;4.72;;;20.90;99.90;;;;;;5033932;28;20288;-32
2023/05/05 09:25:44;;;;;;;10.75;4.38;;;20.90;99.90;;;;;;5046118;28;20217;-33
2023/05/05 09:28:18;;;;;;;6.47;4.13;;;20.90;99.90;;;;;;5058884;28;20204;-33
2023/05/05 09:30:47;;;;;;;7.85;3.58;;;20.90;99.90;;;;;;5056802;28;20215;-33
2023/05/05 09:33:29;;;;;;;9.23;3.95;;;20.90;99.90;;;;;;5039162;28;21002;-32
2023/05/05 09:35:59;;;;;;;6.78;3.28;;;21.00;99.90;;;;;;5043825;28;20199;-33
2023/05/05 09:38:30;;;;;;;10.45;3.78;;;21.00;99.90;;;;;;5040527;28;20266;-33
2023/05/05 09:41:00;;;;;;;8.15;3.25;;;21.00;99.90;;;;;;5052107;28;20340;-33
2023/05/05 09:43:48;;;;;;;6.95;2.97;;;21.00;99.90;;;;;;5056372;28;20313;-33
2023/05/05 09:46:20;;;;;;;4.97;3.10;;;21.00;99.90;;;;;;5024306;28;20219;-33
2023/05/05 09:48:54;;;;;;;6.50;3.33;;;21.10;99.90;;;;;;5040334;28;20230;-33
2023/05/05 09:51:28;;;;;;;9.05;4.07;;;21.10;99.90;;;;;;5047463;28;20668;-33
2023/05/05 09:54:00;;;;;;;7.32;3.63;;;21.20;99.90;;;;;;5037716;28;20273;-33
2023/05/05 09:56:39;;;;;;;8.40;3.28;;;21.30;99.90;;;;;;5042716;28;20247;-33
2023/05/05 09:59:12;;;;;;;5.93;3.03;;;21.40;99.90;;;;;;5041440;28;20251;-33
2023/05/05 10:01:42;;;;;;;5.03;2.80;;;21.50;99.90;;;;;;5039557;28;20200;-32
2023/05/05 10:04:31;;;;;;;6.15;2.65;;;21.50;99.90;;;;;;5025472;28;20212;-33
2023/05/05 10:06:58;;;;;;;7.90;2.65;;;21.60;99.90;;;;;;5031174;28;20208;-33
2023/05/05 10:09:31;;;;;;;6.28;2.70;;;21.70;99.90;;;;;;5030132;28;20209;-33
2023/05/05 10:12:04;;;;;;;8.25;2.83;;;21.70;99.90;;;;;;5031544;28;20274;-33
2023/05/05 10:14:34;;;;;;;5.90;2.80;;;21.80;99.90;;;;;;5035361;28;20874;-33
2023/05/05 10:17:05;;;;;;;6.72;3.10;;;21.90;99.90;;;;;;5023163;28;20216;-33
2023/05/05 10:19:36;;;;;;;4.53;2.47;;;21.90;99.90;;;;;;5038364;28;20325;-33
2023/05/05 10:22:09;;;;;;;3.97;2.20;;;22.00;99.90;;;;;;5031834;28;20320;-32
2023/05/05 10:24:36;;;;;;;5.15;2.20;;;22.00;99.90;;;;;;5038057;28;20281;-33
2023/05/05 10:27:11;;;;;;;7.35;2.42;;;22.10;99.90;;;;;;5042797;28;20250;-33
2023/05/05 10:29:51;;;;;;;9.68;1.98;;;22.10;99.90;;;;;;5045291;28;20666;-33
2023/05/05 10:32:33;;;;;;;4.25;2.15;;;22.00;99.90;;;;;;5030624;28;20212;-33
2023/05/05 10:35:26;;;;;;;5.07;2.40;;;22.00;99.90;;;;;;5022245;28;20220;-33
2023/05/05 10:37:58;;;;;;;6.15;1.95;;;22.00;99.90;;;;;;5030454;28;20747;-33
2023/05/05 10:40:32;;;;;;;4.43;2.28;;;22.00;99.90;;;;;;5040936;28;20248;-33
2023/05/05 10:43:02;;;;;;;4.55;1.63;;;22.00;99.90;;;;;;5040117;28;20269;-33
2023/05/05 10:45:32;;;;;;;3.17;1.83;;;22.00;99.90;;;;;;5022190;28;20610;-33
2023/05/05 10:48:04;;;;;;;5.60;1.92;;;22.00;99.90;;;;;;5033976;28;20352;-33
2023/05/05 10:50:47;;;;;;;5.82;1.80;;;21.90;99.90;;;;;;5033467;28;20274;-33
2023/05/05 10:53:42;;;;;;;4.10;1.45;;;21.90;99.90;;;;;;5044299;28;20282;-33
2023/05/05 10:56:33;;;;;;;7.28;1.80;;;21.90;99.90;;;;;;5025827;28;20232;-33
2023/05/05 10:59:01;;;;;;;3.60;1.77;;;21.90;99.90;;;;;;5049911;28;20217;-33
2023/05/05 11:01:32;;;;;;;5.65;1.88;;;21.90;99.90;;;;;;5030772;28;20236;-33
2023/05/05 11:04:19;;;;;;;4.30;1.65;;;21.80;99.90;;;;;;5044489;28;20196;-33
2023/05/05 11:07:08;;;;;;;4.35;1.27;;;21.80;99.90;;;;;;5031511;28;20212;-33
2023/05/05 11:09:57;;;;;;;5.60;1.60;;;21.80;99.90;;;;;;5032181;28;20204;-33
2023/05/05 11:12:27;;;;;;;3.17;1.25;;;21.80;99.90;;;;;;5036265;28;20495;-33
2023/05/05 11:15:27;;;;;;;2.20;0.98;;;21.70;99.90;;;;;;5030072;28;20255;-33
2023/05/05 11:17:58;;;;;;;7.80;1.60;;;21.70;99.90;;;;;;5039264;28;20204;-33
2023/05/05 11:20:42;;;;;;;4.72;1.35;;;21.70;99.90;;;;;;5032116;28;20332;-32
2023/05/05 11:23:09;;;;;;;3.78;1.40;;;21.60;99.90;;;;;;5031100;28;20215;-33
2023/05/05 11:25:39;;;;;;;16.42;2.40;;;21.50;99.90;;;;;;5045091;28;20210;-32
2023/05/05 11:28:13;;;;;;;3.47;1.40;;;21.50;99.90;;;;;;5037974;28;20212;-33
2023/05/05 11:30:58;;;;;;;4.90;1.40;;;21.50;99.90;;;;;;5037210;28;20343;-33
2023/05/05 11:33:35;;;;;;;3.55;1.52;;;21.50;99.90;;;;;;5032991;28;20215;-33
2023/05/05 11:36:05;;;;;;;6.00;1.50;;;21.40;99.90;;;;;;5029102;28;20230;-32
2023/05/05 11:39:08;;;;;;;5.45;1.40;;;21.30;99.90;;;;;;5037506;28;20235;-32
2023/05/05 11:42:03;;;;;;;4.05;1.23;;;21.30;99.90;;;;;;5040895;28;20670;-32
2023/05/05 11:44:40;;;;;;;4.15;1.17;;;21.30;99.90;;;;;;5041994;28;20321;-33
2023/05/05 11:47:07;;;;;;;3.35;1.10;;;21.20;99.90;;;;;;5039829;28;20196;-33
2023/05/05 11:49:38;;;;;;;3.78;1.55;;;21.20;99.90;;;;;;5036241;28;20239;-32
2023/05/05 11:52:11;;;;;;;6.97;1.40;;;21.20;99.90;;;;;;5025752;28;20258;-32
2023/05/05 11:54:40;;;;;;;3.97;1.30;;;21.10;99.90;;;;;;5034181;28;20231;-33
2023/05/05 11:57:12;;;;;;;3.30;1.23;;;21.10;99.90;;;;;;5034765;28;20272;-33
2023/05/05 11:59:52;;;;;;;3.88;1.10;;;21.10;99.90;;;;;;5038467;28;20676;-33
2023/05/05 12:02:20;;;;;;;8.77;2.35;;;21.20;99.90;;;;;;5026052;28;20208;-33
2023/05/05 12:04:50;;;;;;;8.77;2.67;;;21.20;99.90;;;;;;5039541;28;20201;-33
2023/05/05 12:07:31;;;;;;;7.30;2.30;;;21.30;99.90;;;;;;5044906;28;20326;-33
2023/05/05 12:10:01;;;;;;;10.40;2.25;;;21.30;99.90;;;;;;5050424;28;20239;-33
2023/05/05 12:12:41;;;;;;;4.68;1.50;;;21.40;99.90;;;;;;5041874;28;20447;-33
2023/05/05 12:15:08;;;;;;;4.97;1.40;;;21.50;99.90;;;;;;5040616;28;20212;-33
2023/05/05 12:17:41;;;;;;;3.72;1.45;;;21.50;99.90;;;;;;5038240;28;20221;-33
2023/05/05 12:20:14;;;;;;;3.85;1.20;;;21.50;99.90;;;;;;5058845;28;20584;-33
2023/05/05 12:22:42;;;;;;;6.63;1.33;;;21.60;99.90;;;;;;5047889;28;20670;-33
2023/05/05 12:25:12;;;;;;;4.70;1.95;;;21.60;99.90;;;;;;5045248;28;20688;-33
2023/05/05 12:27:41;;;;;;;4.38;1.50;;;21.80;99.90;;;;;;5045798;28;20720;-33
2023/05/05 12:30:16;;;;;;;9.55;2.60;;;21.80;99.90;;;;;;5028156;28;20235;-33
2023/05/05 12:32:47;;;;;;;9.73;1.83;;;21.90;99.90;;;;;;5041271;28;20659;-33
2023/05/05 12:35:14;;;;;;;19.40;4.22;;;22.00;99.90;;;;;;5038184;28;20220;-33
2023/05/05 12:37:42;;;;;;;6.70;1.73;;;22.00;99.90;;;;;;5044563;28;20207;-33
2023/05/05 12:40:41;;;;;;;6.88;1.65;;;22.10;99.90;;;;;;5043108;28;20212;-33
2023/05/05 12:43:27;;;;;;;5.13;1.15;;;22.10;99.90;;;;;;5046311;28;20219;-33
2023/05/05 12:45:58;;;;;;;4.68;1.10;;;22.30;99.90;;;;;;5034260;28;20720;-33
2023/05/05 12:48:27;;;;;;;6.63;1.45;;;22.40;99.90;;;;;;5046517;28;20214;-33
2023/05/05 12:51:16;;;;;;;2.72;0.90;;;22.40;99.90;;;;;;5048024;28;20205;-33
2023/05/05 12:53:48;;;;;;;3.42;0.93;;;22.50;99.90;;;;;;5040820;28;20690;-33
2023/05/05 12:56:31;;;;;;;3.58;0.88;;;22.40;99.90;;;;;;5028852;28;20236;-33
2023/05/05 12:58:59;;;;;;;1.67;0.80;;;22.50;99.90;;;;;;5042780;28;20319;-33
2023/05/05 13:01:30;;;;;;;2.78;0.85;;;22.50;99.90;;;;;;5035245;28;20220;-33
2023/05/05 13:04:10;;;;;;;3.15;1.20;;;22.40;99.90;;;;;;5037119;28;20227;-33
2023/05/05 13:06:39;;;;;;;2.17;1.10;;;22.40;99.90;;;;;;5043071;28;20297;-33
2023/05/05 13:09:20;;;;;;;2.60;1.20;;;22.40;99.90;;;;;;5044324;28;20750;-33